createdAt,value
2023-04-13T00:01:05.085Z,99576
2023-04-13T00:02:10.622Z,99579
2023-04-13T00:03:16.265Z,99573.45
2023-04-13T00:04:22.436Z,99574.61
2023-04-13T00:05:27.918Z,99575.75
2023-04-13T00:06:33.300Z,99574.61
2023-04-13T00:07:38.648Z,99586.67
2023-04-13T00:08:43.981Z,99581.8
2023-04-13T00:09:49.357Z,99580.2
2023-04-13T00:10:54.654Z,99580.2
2023-04-13T00:11:59.952Z,99571.94
2023-04-13T00:13:05.482Z,99576.13
2023-04-13T00:14:10.842Z,99569.95
2023-04-13T00:15:16.176Z,99573.27
2023-04-13T00:16:21.601Z,99568.41
2023-04-13T00:17:27.109Z,99565.94
2023-04-13T00:18:32.426Z,99564.44
2023-04-13T00:19:37.717Z,99562.05
2023-04-13T00:20:43.148Z,99568.38
2023-04-13T00:21:48.440Z,99566.95
2023-04-13T00:22:53.836Z,99565.33
2023-04-13T00:24:02.193Z,99560.26
2023-04-13T00:25:07.566Z,99568.94
2023-04-13T00:26:12.881Z,99573.56
2023-04-13T00:27:18.171Z,99566.86
2023-04-13T00:28:23.492Z,99572.72
2023-04-13T00:29:28.780Z,99579.33
2023-04-13T00:30:34.242Z,99569.11
2023-04-13T00:31:39.687Z,99565.38
2023-04-13T00:32:45.047Z,99568.58
2023-04-13T00:33:50.442Z,99566.95
2023-04-13T00:34:55.733Z,99577.98
2023-04-13T00:36:01.101Z,99571.2
2023-04-13T00:37:06.433Z,99579.13
2023-04-13T00:38:11.750Z,99583.14
2023-04-13T00:39:17.115Z,99580.66
2023-04-13T00:40:22.416Z,99583.66
2023-04-13T00:41:27.761Z,99587.45
2023-04-13T00:42:33.076Z,99588.94
2023-04-13T00:43:38.387Z,99592.19
2023-04-13T00:44:43.720Z,99591.05
2023-04-13T00:45:49.272Z,99591.61
2023-04-13T00:46:54.640Z,99595.89
2023-04-13T00:48:00.347Z,99587.69
2023-04-13T00:49:05.865Z,99593.91
2023-04-13T00:50:11.167Z,99588.98
2023-04-13T00:51:16.482Z,99590.97
2023-04-13T00:52:21.794Z,99592.8
2023-04-13T00:53:27.095Z,99603.34
2023-04-13T00:54:32.414Z,99596.21
2023-04-13T00:55:37.719Z,99600.55
2023-04-13T00:56:43.010Z,99600.55
2023-04-13T00:57:48.352Z,99608.42
2023-04-13T00:58:53.704Z,99606.84
2023-04-13T00:59:59.004Z,99615.72
2023-04-13T01:01:04.352Z,99615.97
2023-04-13T01:02:10.134Z,99623.52
2023-04-13T01:03:15.983Z,99621.77
2023-04-13T01:04:21.579Z,99629.8
2023-04-13T01:05:27.198Z,99634.84
2023-04-13T01:06:32.498Z,99639.67
2023-04-13T01:07:37.854Z,99636.27
2023-04-13T01:08:43.167Z,99639.88
2023-04-13T01:09:48.493Z,99637.92
2023-04-13T01:10:53.839Z,99636.75
2023-04-13T01:11:59.141Z,99625.95
2023-04-13T01:13:04.449Z,99632.66
2023-04-13T01:14:09.726Z,99629.48
2023-04-13T01:15:15.005Z,99618.33
2023-04-13T01:16:20.566Z,99615.77
2023-04-13T01:17:26.061Z,99621.49
2023-04-13T01:18:31.673Z,99622.72
2023-04-13T01:19:36.948Z,99619.46
2023-04-13T01:20:42.231Z,99613.58
2023-04-13T01:21:47.679Z,99615.85
2023-04-13T01:22:52.978Z,99620.36
2023-04-13T01:23:58.728Z,99616.74
2023-04-13T01:25:04.480Z,99615.61
2023-04-13T01:26:09.807Z,99619.02
2023-04-13T01:27:15.168Z,99617.59
2023-04-13T01:28:20.475Z,99618.61
2023-04-13T01:29:25.775Z,99615.45
2023-04-13T01:30:31.072Z,99613.98
2023-04-13T01:31:36.499Z,99610.91
2023-04-13T01:32:41.959Z,99608.63
2023-04-13T01:33:47.295Z,99610.17
2023-04-13T01:34:52.815Z,99617.59
2023-04-13T01:35:58.123Z,99610.41
2023-04-13T01:37:03.417Z,99612.23
2023-04-13T01:38:08.811Z,99608.63
2023-04-13T01:39:14.121Z,99605.3
2023-04-13T01:40:19.490Z,99611.68
2023-04-13T01:41:24.864Z,99605.83
2023-04-13T01:42:30.158Z,99610.17
2023-04-13T01:43:35.534Z,99605.63
2023-04-13T01:44:40.810Z,99611.1
2023-04-13T01:45:46.136Z,99603.56
2023-04-13T01:46:52.563Z,99607.98
2023-04-13T01:47:58.031Z,99610.34
2023-04-13T01:49:03.405Z,99604.41
2023-04-13T01:50:08.720Z,99602.63
2023-04-13T01:51:14.050Z,99592.77
2023-04-13T01:52:19.347Z,99591.34
2023-04-13T01:53:24.902Z,99588.92
2023-04-13T01:54:30.210Z,99591.59
2023-04-13T01:55:35.509Z,99595.12
2023-04-13T01:56:40.803Z,99596.22
2023-04-13T01:57:46.090Z,99599.63
2023-04-13T01:58:51.480Z,99600.06
2023-04-13T01:59:56.777Z,99602.42
2023-04-13T02:01:02.116Z,99602.02
2023-04-13T02:02:07.824Z,99603.44
2023-04-13T02:03:13.516Z,99601.86
2023-04-13T02:04:19.341Z,99606.8
2023-04-13T02:05:24.834Z,99601.17
2023-04-13T02:06:30.152Z,99605.19
2023-04-13T02:07:35.464Z,99608.19
2023-04-13T02:08:40.870Z,99605.42
2023-04-13T02:09:46.176Z,99607.45
2023-04-13T02:10:51.500Z,99607.45
2023-04-13T02:11:56.823Z,99611.96
2023-04-13T02:13:02.147Z,99611.47
2023-04-13T02:14:07.485Z,99614.56
2023-04-13T02:15:12.794Z,99612.08
2023-04-13T02:16:18.191Z,99608.88
2023-04-13T02:17:23.714Z,99605.84
2023-04-13T02:18:29.131Z,99606.97
2023-04-13T02:19:34.441Z,99611.43
2023-04-13T02:20:39.780Z,99609.89
2023-04-13T02:21:45.086Z,99606.4
2023-04-13T02:22:50.430Z,99615.25
2023-04-13T02:23:55.777Z,99614.64
2023-04-13T02:25:01.565Z,99615.08
2023-04-13T02:26:06.986Z,99616.09
2023-04-13T02:27:12.279Z,99618.77
2023-04-13T02:28:17.961Z,99621.02
2023-04-13T02:29:23.496Z,99618.86
2023-04-13T02:30:28.799Z,99623.8
2023-04-13T02:31:34.162Z,99620.69
2023-04-13T02:32:39.788Z,99629.56
2023-04-13T02:33:45.129Z,99631.84
2023-04-13T02:34:50.641Z,99628.52
2023-04-13T02:35:55.963Z,99634.19
2023-04-13T02:37:01.303Z,99635.42
2023-04-13T02:38:06.634Z,99634.19
2023-04-13T02:39:11.954Z,99633.34
2023-04-13T02:40:17.273Z,99638.3
2023-04-13T02:41:22.619Z,99637.9
2023-04-13T02:42:28.062Z,99635.3
2023-04-13T02:43:33.457Z,99636.36
2023-04-13T02:44:38.821Z,99639.39
2023-04-13T02:45:44.231Z,99646.02
2023-04-13T02:46:49.630Z,99637.13
2023-04-13T02:47:55.025Z,99641.66
2023-04-13T02:49:00.474Z,99646.41
2023-04-13T02:50:05.783Z,99646.94
2023-04-13T02:51:11.102Z,99640.56
2023-04-13T02:52:16.395Z,99640.78
2023-04-13T02:53:21.691Z,99642.91
2023-04-13T02:54:26.999Z,99636.22
2023-04-13T02:55:32.433Z,99635.61
2023-04-13T02:56:37.714Z,99639.12
2023-04-13T02:57:43.038Z,99637.57
2023-04-13T02:58:48.326Z,99634.78
2023-04-13T02:59:53.708Z,99638.8
2023-04-13T03:00:59.081Z,99632.3
2023-04-13T03:02:04.552Z,99638.3
2023-04-13T03:03:10.028Z,99639.12
2023-04-13T03:04:15.520Z,99635.71
2023-04-13T03:05:20.928Z,99637.9
2023-04-13T03:06:26.287Z,99636.97
2023-04-13T03:07:31.621Z,99637.2
2023-04-13T03:08:36.907Z,99641.58
2023-04-13T03:09:42.240Z,99644.34
2023-04-13T03:10:47.569Z,99645.92
2023-04-13T03:11:52.940Z,99642.41
2023-04-13T03:12:58.303Z,99641.8
2023-04-13T03:14:03.937Z,99641.27
2023-04-13T03:15:09.223Z,99639.32
2023-04-13T03:16:14.602Z,99640.5
2023-04-13T03:17:21.295Z,99638.39
2023-04-13T03:18:26.806Z,99635.58
2023-04-13T03:19:32.191Z,99640.61
2023-04-13T03:20:37.485Z,99631.56
2023-04-13T03:21:42.825Z,99636.69
2023-04-13T03:22:48.404Z,99642.93
2023-04-13T03:23:53.755Z,99638.84
2023-04-13T03:24:59.113Z,99634.98
2023-04-13T03:26:04.410Z,99635.55
2023-04-13T03:27:09.725Z,99636.63
2023-04-13T03:28:15.002Z,99633.72
2023-04-13T03:29:20.323Z,99634.09
2023-04-13T03:30:25.639Z,99640.64
2023-04-13T03:31:31.083Z,99641.05
2023-04-13T03:32:36.554Z,99640.38
2023-04-13T03:33:41.989Z,99641.22
2023-04-13T03:34:47.359Z,99643.46
2023-04-13T03:35:52.686Z,99643.98
2023-04-13T03:36:58.017Z,99639.88
2023-04-13T03:38:03.357Z,99638.78
2023-04-13T03:39:08.804Z,99641.59
2023-04-13T03:40:14.144Z,99647.75
2023-04-13T03:41:19.454Z,99640.64
2023-04-13T03:42:24.797Z,99636.97
2023-04-13T03:43:30.130Z,99637.29
2023-04-13T03:44:35.444Z,99638.8
2023-04-13T03:45:40.777Z,99637.45
2023-04-13T03:46:46.331Z,99637.9
2023-04-13T03:47:51.939Z,99640.05
2023-04-13T03:48:57.303Z,99640.9
2023-04-13T03:50:02.614Z,99643.58
2023-04-13T03:51:07.976Z,99635.55
2023-04-13T03:52:13.586Z,99642.48
2023-04-13T03:53:18.909Z,99639.76
2023-04-13T03:54:24.213Z,99640.97
2023-04-13T03:55:29.557Z,99639.39
2023-04-13T03:56:34.939Z,99643.2
2023-04-13T03:57:40.233Z,99640.73
2023-04-13T03:58:45.558Z,99638.67
2023-04-13T03:59:50.899Z,99639.85
2023-04-13T04:00:56.238Z,99642.81
2023-04-13T04:02:01.618Z,99639.48
2023-04-13T04:03:07.356Z,99634.98
2023-04-13T04:04:13.001Z,99636.59
2023-04-13T04:05:18.722Z,99639.03
2023-04-13T04:06:24.126Z,99644.02
2023-04-13T04:07:29.459Z,99636.31
2023-04-13T04:08:34.780Z,99639.77
2023-04-13T04:09:40.146Z,99638.15
2023-04-13T04:10:45.469Z,99642.07
2023-04-13T04:11:50.751Z,99644.22
2023-04-13T04:12:56.058Z,99646.33
2023-04-13T04:14:01.835Z,99644.16
2023-04-13T04:15:07.354Z,99647.21
2023-04-13T04:16:12.984Z,99644.48
2023-04-13T04:17:18.414Z,99647.12
2023-04-13T04:18:23.723Z,99649.42
2023-04-13T04:19:29.053Z,99647.6
2023-04-13T04:20:34.438Z,99651.77
2023-04-13T04:21:39.783Z,99653.32
2023-04-13T04:22:45.079Z,99646.95
2023-04-13T04:23:50.371Z,99649.05
2023-04-13T04:24:55.683Z,99651.93
2023-04-13T04:26:01.007Z,99654.36
2023-04-13T04:27:07.302Z,99645.63
2023-04-13T04:28:12.615Z,99659.02
2023-04-13T04:29:17.964Z,99662.92
2023-04-13T04:30:23.574Z,99661.09
2023-04-13T04:31:28.926Z,99665.11
2023-04-13T04:32:34.360Z,99658.82
2023-04-13T04:33:39.714Z,99659.06
2023-04-13T04:34:45.022Z,99659.98
2023-04-13T04:35:50.349Z,99668.84
2023-04-13T04:37:03.035Z,99667.7
2023-04-13T04:38:21.992Z,99666.13
2023-04-13T04:39:27.417Z,99665.81
2023-04-13T04:40:32.683Z,99656.02
2023-04-13T04:41:38.078Z,99654.36
2023-04-13T04:42:43.412Z,99654.77
2023-04-13T04:43:48.711Z,99652.25
2023-04-13T04:44:54.015Z,99643.48
2023-04-13T04:45:59.578Z,99651.03
2023-04-13T04:47:05.040Z,99638.21
2023-04-13T04:48:10.468Z,99646.95
2023-04-13T04:49:15.913Z,99645.28
2023-04-13T04:50:21.250Z,99648.69
2023-04-13T04:51:26.615Z,99655.64
2023-04-13T04:52:31.910Z,99657.91
2023-04-13T04:53:37.237Z,99666.88
2023-04-13T04:54:42.583Z,99665.71
2023-04-13T04:55:47.899Z,99666.73
2023-04-13T04:56:53.233Z,99672.69
2023-04-13T04:57:58.630Z,99671.35
2023-04-13T04:59:03.941Z,99674.64
2023-04-13T05:00:09.274Z,99680
2023-04-13T05:01:14.643Z,99686.45
2023-04-13T05:02:20.729Z,99683.78
2023-04-13T05:03:27.644Z,99682.96
2023-04-13T05:04:33.081Z,99681.3
2023-04-13T05:05:38.544Z,99676.02
2023-04-13T05:06:44.027Z,99672.09
2023-04-13T05:07:49.339Z,99670.34
2023-04-13T05:08:54.632Z,99675.05
2023-04-13T05:09:59.987Z,99665.59
2023-04-13T05:11:05.336Z,99667.42
2023-04-13T05:12:10.640Z,99676.06
2023-04-13T05:13:15.982Z,99678.5
2023-04-13T05:14:21.348Z,99687.14
2023-04-13T05:15:26.682Z,99681.19
2023-04-13T05:16:32.333Z,99685.31
2023-04-13T05:17:38.081Z,99689.18
2023-04-13T05:18:43.502Z,99690.27
2023-04-13T05:19:48.789Z,99690.27
2023-04-13T05:20:54.130Z,99688.85
2023-04-13T05:21:59.421Z,99690.06
2023-04-13T05:23:04.819Z,99686.45
2023-04-13T05:24:10.146Z,99689.05
2023-04-13T05:25:15.455Z,99696.07
2023-04-13T05:26:20.783Z,99694.62
2023-04-13T05:27:26.121Z,99694.53
2023-04-13T05:28:31.445Z,99695.95
2023-04-13T05:29:36.783Z,99692.18
2023-04-13T05:30:42.128Z,99691.94
2023-04-13T05:31:47.550Z,99694.13
2023-04-13T05:32:53.063Z,99699.24
2023-04-13T05:33:58.516Z,99701.43
2023-04-13T05:35:03.903Z,99702.77
2023-04-13T05:36:09.230Z,99709.55
2023-04-13T05:37:14.533Z,99706.87
2023-04-13T05:38:19.914Z,99702
2023-04-13T05:39:25.203Z,99706.46
2023-04-13T05:40:30.516Z,99702.33
2023-04-13T05:41:35.814Z,99707.97
2023-04-13T05:42:41.153Z,99709.83
2023-04-13T05:43:46.525Z,99711.25
2023-04-13T05:44:51.848Z,99711.01
2023-04-13T05:45:57.354Z,99715.35
2023-04-13T05:47:02.827Z,99715.35
2023-04-13T05:48:08.138Z,99711.2
2023-04-13T05:49:13.463Z,99714.49
2023-04-13T05:50:18.746Z,99711.7
2023-04-13T05:51:24.128Z,99707.88
2023-04-13T05:52:29.429Z,99715.83
2023-04-13T05:53:34.716Z,99712.22
2023-04-13T05:54:40.100Z,99718.8
2023-04-13T05:55:48.270Z,99715.67
2023-04-13T05:56:53.736Z,99717.7
2023-04-13T05:57:59.070Z,99719.97
2023-04-13T05:59:04.443Z,99722.64
2023-04-13T06:00:09.860Z,99719.77
2023-04-13T06:01:15.183Z,99719.69
2023-04-13T06:02:20.933Z,99720.02
2023-04-13T06:03:27.121Z,99723.02
2023-04-13T06:04:33.292Z,99717.25
2023-04-13T06:05:39.079Z,99724.44
2023-04-13T06:06:44.381Z,99723.1
2023-04-13T06:07:49.740Z,99719.28
2023-04-13T06:08:55.111Z,99720.09
2023-04-13T06:10:00.590Z,99715.59
2023-04-13T06:11:06.007Z,99724.55
2023-04-13T06:12:11.330Z,99721.03
2023-04-13T06:13:16.639Z,99722.04
2023-04-13T06:14:21.937Z,99722.89
2023-04-13T06:15:27.228Z,99727.16
2023-04-13T06:16:32.646Z,99727.27
2023-04-13T06:17:38.149Z,99730.35
2023-04-13T06:18:43.669Z,99724.8
2023-04-13T06:19:48.951Z,99729.59
2023-04-13T06:20:54.252Z,99725.81
2023-04-13T06:21:59.564Z,99723.14
2023-04-13T06:23:04.983Z,99725.66
2023-04-13T06:24:10.352Z,99729.95
2023-04-13T06:25:15.672Z,99723.8
2023-04-13T06:26:21.034Z,99725.92
2023-04-13T06:27:26.607Z,99725.13
2023-04-13T06:28:31.925Z,99725.81
2023-04-13T06:29:37.208Z,99732.75
2023-04-13T06:30:42.639Z,99731.5
2023-04-13T06:31:48.027Z,99732.8
2023-04-13T06:32:53.441Z,99736.4
2023-04-13T06:33:58.865Z,99731.05
2023-04-13T06:35:04.193Z,99733.48
2023-04-13T06:36:09.582Z,99728.45
2023-04-13T06:37:14.914Z,99732.14
2023-04-13T06:38:20.249Z,99734.73
2023-04-13T06:39:28.448Z,99737.49
2023-04-13T06:40:36.630Z,99733.89
2023-04-13T06:41:41.994Z,99738.23
2023-04-13T06:42:47.310Z,99742.03
2023-04-13T06:43:52.650Z,99744.88
2023-04-13T06:44:57.974Z,99742.52
2023-04-13T06:46:03.421Z,99743.7
2023-04-13T06:47:08.812Z,99750.23
2023-04-13T06:48:14.144Z,99750.15
2023-04-13T06:49:19.458Z,99751.77
2023-04-13T06:50:24.799Z,99751.77
2023-04-13T06:51:30.105Z,99752.47
2023-04-13T06:52:35.426Z,99756.2
2023-04-13T06:53:40.747Z,99753.44
2023-04-13T06:54:46.087Z,99747.56
2023-04-13T06:55:51.424Z,99756.86
2023-04-13T06:56:56.724Z,99755.52
2023-04-13T06:58:02.090Z,99758.06
2023-04-13T06:59:08.058Z,99759.81
2023-04-13T07:00:29.899Z,99761.72
2023-04-13T07:01:36.041Z,99765.63
2023-04-13T07:02:41.724Z,99761.72
2023-04-13T07:03:47.517Z,99768.3
2023-04-13T07:04:53.250Z,99765.05
2023-04-13T07:05:58.714Z,99762.25
2023-04-13T07:07:04.029Z,99759.91
2023-04-13T07:08:09.378Z,99763.43
2023-04-13T07:09:14.763Z,99761.36
2023-04-13T07:10:20.074Z,99753.48
2023-04-13T07:11:25.551Z,99762.17
2023-04-13T07:12:30.866Z,99763.92
2023-04-13T07:13:36.278Z,99761.89
2023-04-13T07:14:41.617Z,99763.52
2023-04-13T07:15:47.011Z,99765.59
2023-04-13T07:16:52.394Z,99765.5
2023-04-13T07:17:57.839Z,99766.52
2023-04-13T07:19:03.497Z,99763.92
2023-04-13T07:20:09.822Z,99766.11
2023-04-13T07:21:15.167Z,99765.37
2023-04-13T07:22:20.473Z,99764.94
2023-04-13T07:23:25.790Z,99766.92
2023-04-13T07:24:31.626Z,99767.94
2023-04-13T07:25:36.980Z,99770.81
2023-04-13T07:26:42.320Z,99775.23
2023-04-13T07:27:47.637Z,99775.97
2023-04-13T07:28:52.961Z,99777.42
2023-04-13T07:29:58.374Z,99782.95
2023-04-13T07:31:03.766Z,99780.1
2023-04-13T07:32:09.164Z,99783.19
2023-04-13T07:33:14.582Z,99784.61
2023-04-13T07:34:20.010Z,99786.36
2023-04-13T07:35:25.344Z,99783.08
2023-04-13T07:36:30.634Z,99790.81
2023-04-13T07:37:35.975Z,99785.95
2023-04-13T07:38:43.812Z,99790.05
2023-04-13T07:39:49.142Z,99791.91
2023-04-13T07:40:54.485Z,99791.34
2023-04-13T07:41:59.807Z,99794.42
2023-04-13T07:43:05.162Z,99790.57
2023-04-13T07:44:10.488Z,99802.95
2023-04-13T07:45:15.873Z,99800.59
2023-04-13T07:46:21.285Z,99797.8
2023-04-13T07:47:26.840Z,99804.09
2023-04-13T07:48:32.250Z,99803.93
2023-04-13T07:49:37.569Z,99811.03
2023-04-13T07:50:42.881Z,99807.62
2023-04-13T07:51:48.193Z,99798.25
2023-04-13T07:52:53.516Z,99799.95
2023-04-13T07:53:58.859Z,99805.71
2023-04-13T07:55:04.159Z,99811.67
2023-04-13T07:56:09.537Z,99812.44
2023-04-13T07:57:14.865Z,99814.7
2023-04-13T07:58:20.197Z,99826.48
2023-04-13T07:59:26.658Z,99823.06
2023-04-13T08:00:31.968Z,99822.22
2023-04-13T08:01:37.329Z,99823.75
2023-04-13T08:02:43.344Z,99822.66
2023-04-13T08:03:49.376Z,99823.14
2023-04-13T08:04:55.239Z,99825.33
2023-04-13T08:06:00.783Z,99826.42
2023-04-13T08:07:06.171Z,99819.73
2023-04-13T08:08:11.490Z,99810.52
2023-04-13T08:09:16.876Z,99818.88
2023-04-13T08:10:22.216Z,99820.88
2023-04-13T08:11:27.604Z,99817.98
2023-04-13T08:12:32.901Z,99816.53
2023-04-13T08:13:38.228Z,99821.07
2023-04-13T08:14:43.555Z,99813.31
2023-04-13T08:15:48.879Z,99815.06
2023-04-13T08:16:54.626Z,99820.55
2023-04-13T08:18:01.402Z,99824
2023-04-13T08:19:06.750Z,99819.05
2023-04-13T08:20:14.353Z,99829.92
2023-04-13T08:21:20.925Z,99832.69
2023-04-13T08:22:26.225Z,99835.2
2023-04-13T08:23:31.560Z,99835.11
2023-04-13T08:24:36.886Z,99831.09
2023-04-13T08:25:42.294Z,99833.61
2023-04-13T08:26:47.589Z,99836.13
2023-04-13T08:27:52.960Z,99837.41
2023-04-13T08:28:58.850Z,99841.07
2023-04-13T08:30:04.732Z,99843.66
2023-04-13T08:31:10.326Z,99838.72
2023-04-13T08:32:15.826Z,99838.15
2023-04-13T08:33:21.242Z,99835.55
2023-04-13T08:34:26.687Z,99839.56
2023-04-13T08:35:31.997Z,99840.63
2023-04-13T08:36:37.311Z,99845.25
2023-04-13T08:37:42.606Z,99836.2
2023-04-13T08:38:47.963Z,99843.66
2023-04-13T08:39:53.247Z,99845.45
2023-04-13T08:40:58.572Z,99847.3
2023-04-13T08:42:03.934Z,99844.3
2023-04-13T08:43:09.237Z,99840.95
2023-04-13T08:44:14.531Z,99844.19
2023-04-13T08:45:19.867Z,99844.12
2023-04-13T08:46:25.277Z,99844.45
2023-04-13T08:47:30.803Z,99835.25
2023-04-13T08:48:53.294Z,99844.62
2023-04-13T08:49:58.936Z,99833.87
2023-04-13T08:51:04.272Z,99837.16
2023-04-13T08:52:14.512Z,99839.5
2023-04-13T08:53:20.976Z,99841.09
2023-04-13T08:54:26.285Z,99846.88
2023-04-13T08:55:31.601Z,99842.61
2023-04-13T08:56:47.428Z,99839.88
2023-04-13T08:57:53.181Z,99837.86
2023-04-13T08:58:59.158Z,99840.81
2023-04-13T09:00:05.076Z,99842.03
2023-04-13T09:01:10.505Z,99842.47
2023-04-13T09:02:16.116Z,99841.15
2023-04-13T09:03:21.794Z,99837.67
2023-04-13T09:04:27.922Z,99842.68
2023-04-13T09:05:33.757Z,99836.09
2023-04-13T09:06:39.042Z,99834.81
2023-04-13T09:07:44.375Z,99837.88
2023-04-13T09:08:49.686Z,99840.83
2023-04-13T09:09:55.053Z,99838.17
2023-04-13T09:11:00.520Z,99837.57
2023-04-13T09:12:05.823Z,99832.38
2023-04-13T09:13:11.123Z,99827.11
2023-04-13T09:14:16.431Z,99831.62
2023-04-13T09:15:21.760Z,99819.69
2023-04-13T09:16:27.185Z,99827.88
2023-04-13T09:17:32.587Z,99820.94
2023-04-13T09:18:38.116Z,99823.53
2023-04-13T09:19:43.505Z,99821.38
2023-04-13T09:20:48.858Z,99820.36
2023-04-13T09:21:54.241Z,99821.95
2023-04-13T09:22:59.534Z,99818.59
2023-04-13T09:24:08.342Z,99815.14
2023-04-13T09:25:13.738Z,99820.75
2023-04-13T09:26:19.064Z,99821.76
2023-04-13T09:27:24.458Z,99818.89
2023-04-13T09:28:29.765Z,99822
2023-04-13T09:29:35.061Z,99825.42
2023-04-13T09:30:40.518Z,99822.73
2023-04-13T09:31:47.224Z,99823.06
2023-04-13T09:32:52.605Z,99820.8
2023-04-13T09:33:58.027Z,99816.45
2023-04-13T09:35:03.770Z,99820.39
2023-04-13T09:36:09.246Z,99818.2
2023-04-13T09:37:14.577Z,99811.95
2023-04-13T09:38:19.874Z,99807.94
2023-04-13T09:39:25.230Z,99811.34
2023-04-13T09:40:30.782Z,99813.7
2023-04-13T09:41:36.105Z,99818.97
2023-04-13T09:42:41.452Z,99819.88
2023-04-13T09:43:46.800Z,99818.29
2023-04-13T09:44:52.151Z,99816.45
2023-04-13T09:45:57.515Z,99820.88
2023-04-13T09:47:02.892Z,99821.81
2023-04-13T09:48:08.543Z,99817.3
2023-04-13T09:49:13.885Z,99820.2
2023-04-13T09:50:19.289Z,99816.3
2023-04-13T09:51:24.666Z,99820.8
2023-04-13T09:52:29.961Z,99815.53
2023-04-13T09:53:35.416Z,99813.86
2023-04-13T09:54:40.767Z,99819.13
2023-04-13T09:55:46.101Z,99816.98
2023-04-13T09:56:51.433Z,99813.38
2023-04-13T09:57:57.007Z,99819.88
2023-04-13T09:59:02.521Z,99819.46
2023-04-13T10:00:07.854Z,99816.13
2023-04-13T10:01:13.220Z,99816.45
2023-04-13T10:02:18.736Z,99812.85
2023-04-13T10:03:24.501Z,99818.05
2023-04-13T10:04:30.150Z,99813.78
2023-04-13T10:05:57.449Z,99812.28
2023-04-13T10:07:04.719Z,99813.78
2023-04-13T10:08:10.043Z,99816.38
2023-04-13T10:09:15.383Z,99818.8
2023-04-13T10:10:20.711Z,99821.32
2023-04-13T10:11:26.047Z,99828.02
2023-04-13T10:12:31.350Z,99824.08
2023-04-13T10:13:36.651Z,99822.73
2023-04-13T10:14:41.968Z,99820.47
2023-04-13T10:15:47.307Z,99830.83
2023-04-13T10:16:52.829Z,99821.05
2023-04-13T10:17:58.394Z,99829.84
2023-04-13T10:19:03.973Z,99826.84
2023-04-13T10:20:09.299Z,99831.27
2023-04-13T10:21:14.600Z,99833.86
2023-04-13T10:22:19.924Z,99839.54
2023-04-13T10:23:25.325Z,99842.05
2023-04-13T10:24:30.638Z,99841.45
2023-04-13T10:25:39.959Z,99836.92
2023-04-13T10:26:45.385Z,99841.78
2023-04-13T10:27:50.707Z,99845.69
2023-04-13T10:28:56.045Z,99836.23
2023-04-13T10:30:01.896Z,99844.11
2023-04-13T10:31:07.305Z,99845.25
2023-04-13T10:32:12.774Z,99848.17
2023-04-13T10:33:18.086Z,99844.41
2023-04-13T10:34:23.380Z,99848.18
2023-04-13T10:35:28.700Z,99847.91
2023-04-13T10:36:34.005Z,99851.43
2023-04-13T10:37:39.310Z,99844.62
2023-04-13T10:38:44.642Z,99840.12
2023-04-13T10:39:50.035Z,99845.28
2023-04-13T10:40:55.312Z,99839.43
2023-04-13T10:42:00.675Z,99840.84
2023-04-13T10:43:05.990Z,99844.95
2023-04-13T10:44:11.294Z,99839.27
2023-04-13T10:45:16.657Z,99843.2
2023-04-13T10:46:22.277Z,99842.52
2023-04-13T10:47:29.448Z,99838.7
2023-04-13T10:48:34.877Z,99838.25
2023-04-13T10:49:40.203Z,99847.63
2023-04-13T10:50:45.516Z,99846.89
2023-04-13T10:51:50.811Z,99844.13
2023-04-13T10:52:56.189Z,99848.31
2023-04-13T10:54:01.534Z,99850.09
2023-04-13T10:55:06.870Z,99844.73
2023-04-13T10:56:12.156Z,99852.66
2023-04-13T10:57:17.471Z,99857.2
2023-04-13T10:58:22.794Z,99852.66
2023-04-13T10:59:28.104Z,99860.8
2023-04-13T11:00:47.394Z,99860.55
2023-04-13T11:01:52.750Z,99860.97
2023-04-13T11:02:58.494Z,99867.25
2023-04-13T11:04:09.789Z,99863.72
2023-04-13T11:05:21.726Z,99869.84
2023-04-13T11:06:27.042Z,99872.61
2023-04-13T11:07:32.371Z,99867.33
2023-04-13T11:08:37.702Z,99880.23
2023-04-13T11:09:43.007Z,99876.87
2023-04-13T11:10:48.356Z,99877.44
2023-04-13T11:11:53.640Z,99877.95
2023-04-13T11:12:58.932Z,99871.87
2023-04-13T11:14:04.256Z,99867.41
2023-04-13T11:15:09.611Z,99867.58
2023-04-13T11:16:15.110Z,99865.06
2023-04-13T11:17:21.012Z,99867.33
2023-04-13T11:18:26.906Z,99858.03
2023-04-13T11:19:32.267Z,99860.23
2023-04-13T11:20:37.626Z,99864.16
2023-04-13T11:21:43.011Z,99864
2023-04-13T11:22:49.096Z,99862.16
2023-04-13T11:23:54.393Z,99866.18
2023-04-13T11:24:59.697Z,99862.58
2023-04-13T11:26:05.061Z,99869.27
2023-04-13T11:27:10.432Z,99872.44
2023-04-13T11:28:15.781Z,99869.76
2023-04-13T11:29:21.167Z,99870.2
2023-04-13T11:30:26.506Z,99866.75
2023-04-13T11:31:31.855Z,99871.89
2023-04-13T11:32:37.291Z,99867.77
2023-04-13T11:33:42.701Z,99875.39
2023-04-13T11:34:48.015Z,99871.89
2023-04-13T11:35:53.446Z,99872.55
2023-04-13T11:36:58.852Z,99874.89
2023-04-13T11:38:04.171Z,99870.03
2023-04-13T11:39:11.890Z,99878.59
2023-04-13T11:40:17.344Z,99870.72
2023-04-13T11:41:22.700Z,99888.85
2023-04-13T11:42:28.076Z,99879.92
2023-04-13T11:43:33.390Z,99889.86
2023-04-13T11:44:38.862Z,99891.45
2023-04-13T11:45:44.374Z,99886.29
2023-04-13T11:46:51.112Z,99887.91
2023-04-13T11:47:56.617Z,99891.4
2023-04-13T11:49:02.310Z,99895.33
2023-04-13T11:50:07.708Z,99888.72
2023-04-13T11:51:13.344Z,99892.24
2023-04-13T11:52:18.669Z,99895.82
2023-04-13T11:53:24.046Z,99898.69
2023-04-13T11:54:29.379Z,99895
2023-04-13T11:55:53.085Z,99905.63
2023-04-13T11:56:59.152Z,99896.61
2023-04-13T11:58:04.469Z,99902.53
2023-04-13T11:59:09.870Z,99903.39
2023-04-13T12:00:17.756Z,99899.8
2023-04-13T12:01:33.584Z,99898.05
2023-04-13T12:03:02.762Z,99908.57
2023-04-13T12:04:18.533Z,99896.14
2023-04-13T12:05:24.637Z,99898.48
2023-04-13T12:06:31.682Z,99901.77
2023-04-13T12:07:38.002Z,99892.72
2023-04-13T12:08:46.334Z,99901.24
2023-04-13T12:10:06.102Z,99896.98
2023-04-13T12:11:40.218Z,99896.55
2023-04-13T12:12:56.991Z,99896.88
2023-04-13T12:14:58.068Z,99903.48
2023-04-13T12:17:03.575Z,99917.39
2023-04-13T12:18:39.857Z,99921.22
2023-04-13T12:19:49.009Z,99923.48
2023-04-13T12:20:56.259Z,99917.86
2023-04-13T12:22:03.427Z,99927.23
2023-04-13T12:23:22.646Z,99927.23
2023-04-13T12:24:30.329Z,99921.88
2023-04-13T12:25:39.240Z,99919.94
2023-04-13T12:28:00.480Z,99912.02
2023-04-13T12:29:05.792Z,99917.2
2023-04-13T12:30:11.147Z,99911.71
2023-04-13T12:31:16.540Z,99917.8
2023-04-13T12:32:22.153Z,99917.94
2023-04-13T12:33:27.583Z,99918.8
2023-04-13T12:34:33.056Z,99916.6
2023-04-13T12:35:38.366Z,99914.04
2023-04-13T12:36:43.652Z,99917.86
2023-04-13T12:37:48.980Z,99918.46
2023-04-13T12:38:54.313Z,99917.2
2023-04-13T12:39:59.676Z,99915.86
2023-04-13T12:41:04.960Z,99914.37
2023-04-13T12:42:10.356Z,99921.55
2023-04-13T12:43:15.693Z,99917.86
2023-04-13T12:44:21.165Z,99920.29
2023-04-13T12:45:26.682Z,99918.13
2023-04-13T12:46:32.104Z,99917.2
2023-04-13T12:47:37.590Z,99920.89
2023-04-13T12:48:43.093Z,99927.99
2023-04-13T12:49:48.377Z,99926.44
2023-04-13T12:50:53.694Z,99926.77
2023-04-13T12:51:59.103Z,99912.7
2023-04-13T12:53:04.459Z,99915.95
2023-04-13T12:54:09.788Z,99919.55
2023-04-13T12:55:15.104Z,99920.07
2023-04-13T12:56:20.399Z,99922.56
2023-04-13T12:57:25.722Z,99922.23
2023-04-13T12:58:33.401Z,99918.73
2023-04-13T12:59:38.844Z,99920.23
2023-04-13T13:00:44.351Z,99927.52